sim
Sign-in with your pilot id or email,
or register
Callsign
Passwort

Schedule Details

Flight Number: OEO7258
Departure: Munich Airport (EDDM) at 08:15
Arrival: Fuerteventura Airport (GCFV) at 13:20

Weather Information
Getting current METAR information for EDDM 231050Z 12006KT 070V220 CAVOK 29/13 Q1023 NOSIG
Getting current METAR information for GCFV 231100Z 06015KT 9999 FEW020 24/19 Q1017

Schedule Frequency

Route Map